Time;durP1;ratioP1;P1;durP2;ratioP2;P2;SDS_P1;SDS_P2;PMS_P1;PMS_P2;Temp;Humidity;BMP_temperature;BMP_pressure;BME280_temperature;BME280_humidity;BME280_pressure;Samples;Min_cycle;Max_cycle;Signal;HPM_P1;HPM_P2
2021/05/10 00:00:32;;;;;;;;;;;;;;;7.56;74.13;93808.16;5110782;28;19926;-82
2021/05/10 00:02:58;;;;;;;;;;;;;;;7.55;74.81;93810.88;5109637;28;19919;-82
2021/05/10 00:05:24;;;;;;;;;;;;;;;7.43;74.94;93807.94;5110212;28;20394;-81
2021/05/10 00:07:50;;;;;;;;;;;;;;;7.44;75.66;93805.22;5110052;28;19927;-80
2021/05/10 00:10:16;;;;;;;;;;;;;;;7.46;75.52;93805.81;5109177;28;19926;-80
2021/05/10 00:12:43;;;;;;;;;;;;;;;7.41;75.84;93813.22;5105281;28;19924;-82
2021/05/10 00:15:10;;;;;;;;;;;;;;;7.43;75.11;93813.06;5110472;28;19919;-81
2021/05/10 00:17:36;;;;;;;;;;;;;;;7.40;75.11;93810.88;5110183;28;19935;-81
2021/05/10 00:20:03;;;;;;;;;;;;;;;7.33;75.32;93808.97;5110138;28;20381;-81
2021/05/10 00:22:29;;;;;;;;;;;;;;;7.28;75.54;93806.19;5110242;28;19927;-81
2021/05/10 00:24:55;;;;;;;;;;;;;;;7.24;75.70;93812.59;5110387;28;19923;-81
2021/05/10 00:27:21;;;;;;;;;;;;;;;7.22;76.44;93807.66;5110390;28;19920;-82
2021/05/10 00:29:48;;;;;;;;;;;;;;;7.25;76.54;93815.94;5109950;28;20286;-81
2021/05/10 00:32:14;;;;;;;;;;;;;;;7.24;76.31;93815.16;5110082;28;20367;-81
2021/05/10 00:34:40;;;;;;;;;;;;;;;7.21;76.49;93815.50;5110017;28;19965;-81
2021/05/10 00:37:06;;;;;;;;;;;;;;;7.19;76.67;93820.75;5110025;28;19924;-81
2021/05/10 00:39:32;;;;;;;;;;;;;;;7.19;76.45;93820.75;5109889;28;20394;-80
2021/05/10 00:41:58;;;;;;;;;;;;;;;7.07;76.88;93820.41;5109918;28;20294;-80
2021/05/10 00:44:24;;;;;;;;;;;;;;;7.09;77.08;93815.91;5109717;28;20431;-81
2021/05/10 00:46:52;;;;;;;;;;;;;;;7.02;77.29;93809.91;5110206;28;20279;-81
2021/05/10 00:49:19;;;;;;;;;;;;;;;7.07;76.93;93807.63;5109722;28;19931;-81
2021/05/10 00:51:45;;;;;;;;;;;;;;;7.06;76.78;93800.13;5109656;28;20432;-81
2021/05/10 00:54:11;;;;;;;;;;;;;;;6.99;77.30;93802.56;5109886;28;20367;-81
2021/05/10 00:56:37;;;;;;;;;;;;;;;6.98;77.19;93806.09;5110225;28;19931;-80
2021/05/10 00:59:03;;;;;;;;;;;;;;;6.99;77.45;93794.13;5110074;28;19919;-81
2021/05/10 01:01:29;;;;;;;;;;;;;;;6.93;78.05;93805.81;5109758;28;19920;-81
2021/05/10 01:03:56;;;;;;;;;;;;;;;6.91;77.73;93795.78;5110110;28;19958;-80
2021/05/10 01:06:22;;;;;;;;;;;;;;;6.86;77.77;93802.38;5109797;28;20371;-80
2021/05/10 01:08:48;;;;;;;;;;;;;;;6.90;77.82;93806.97;5110018;28;19949;-80
2021/05/10 01:11:14;;;;;;;;;;;;;;;6.85;77.89;93803.34;5110103;28;19974;-80
2021/05/10 01:13:40;;;;;;;;;;;;;;;6.86;77.95;93798.06;5109751;28;19919;-80
2021/05/10 01:16:06;;;;;;;;;;;;;;;6.89;77.93;93799.50;5112868;28;19920;-80
2021/05/10 01:18:33;;;;;;;;;;;;;;;6.90;77.92;93790.84;5113604;28;19924;-80
2021/05/10 01:21:02;;;;;;;;;;;;;;;6.89;77.44;93786.72;5113928;28;19919;-80
2021/05/10 01:23:29;;;;;;;;;;;;;;;6.84;76.75;93783.88;5110923;28;19927;-80
2021/05/10 01:25:55;;;;;;;;;;;;;;;6.84;76.35;93786.44;5111902;28;19926;-80
2021/05/10 01:28:21;;;;;;;;;;;;;;;6.79;76.81;93782.63;5112750;28;20343;-80
2021/05/10 01:30:48;;;;;;;;;;;;;;;6.76;77.14;93782.19;5113233;28;19923;-81
2021/05/10 01:33:15;;;;;;;;;;;;;;;6.68;77.69;93777.94;5113378;28;19919;-81
2021/05/10 01:35:42;;;;;;;;;;;;;;;6.78;76.65;93782.81;5113437;28;19923;-80
2021/05/10 01:38:08;;;;;;;;;;;;;;;6.72;77.18;93780.94;5113345;28;20286;-80
2021/05/10 01:40:35;;;;;;;;;;;;;;;6.63;77.65;93782.75;5113199;28;19924;-83
2021/05/10 01:43:02;;;;;;;;;;;;;;;6.55;77.83;93781.06;5113388;28;19965;-83
2021/05/10 01:45:28;;;;;;;;;;;;;;;6.52;78.18;93781.38;5112568;28;19923;-83
2021/05/10 01:47:57;;;;;;;;;;;;;;;6.52;78.37;93786.47;5112933;28;20346;-83
2021/05/10 01:50:24;;;;;;;;;;;;;;;6.50;78.51;93779.03;5112978;28;19923;-82
2021/05/10 01:52:50;;;;;;;;;;;;;;;6.44;78.50;93784.00;5112851;28;19926;-82
2021/05/10 01:55:16;;;;;;;;;;;;;;;6.41;78.47;93782.59;5112928;28;20401;-83
2021/05/10 01:57:48;;;;;;;;;;;;;;;6.37;79.12;93771.91;5112924;28;19923;-83
2021/05/10 02:00:17;;;;;;;;;;;;;;;6.36;79.14;93779.75;5113077;28;20298;-83
2021/05/10 02:02:43;;;;;;;;;;;;;;;6.37;79.16;93777.03;5113040;28;19919;-82
2021/05/10 02:05:13;;;;;;;;;;;;;;;6.47;78.91;93778.56;5113116;28;20023;-82
2021/05/10 02:07:41;;;;;;;;;;;;;;;6.46;78.80;93769.31;5112510;28;19924;-83
2021/05/10 02:10:08;;;;;;;;;;;;;;;6.46;79.41;93774.41;5112683;28;20317;-83
2021/05/10 02:12:34;;;;;;;;;;;;;;;6.46;79.01;93780.31;5112499;28;20480;-83
2021/05/10 02:15:01;;;;;;;;;;;;;;;6.48;79.09;93782.72;5112767;28;19974;-84
2021/05/10 02:17:27;;;;;;;;;;;;;;;6.38;79.69;93776.06;5112531;28;19926;-83
2021/05/10 02:19:53;;;;;;;;;;;;;;;6.39;79.91;93774.31;5112679;28;20371;-83
2021/05/10 02:22:19;;;;;;;;;;;;;;;6.40;79.46;93771.56;5112641;28;19920;-83
2021/05/10 02:24:45;;;;;;;;;;;;;;;6.34;79.95;93779.91;5112208;28;19930;-83
2021/05/10 02:27:11;;;;;;;;;;;;;;;6.33;79.48;93773.22;5112316;28;19924;-82
2021/05/10 02:29:37;;;;;;;;;;;;;;;6.26;80.03;93778.19;5112450;28;19919;-82
2021/05/10 02:32:04;;;;;;;;;;;;;;;6.22;80.17;93769.31;5112178;28;19920;-82
2021/05/10 02:34:30;;;;;;;;;;;;;;;6.21;80.45;93767.69;5112315;28;19927;-83
2021/05/10 02:36:56;;;;;;;;;;;;;;;6.14;80.70;93779.53;5112209;28;19927;-82
2021/05/10 02:39:22;;;;;;;;;;;;;;;6.12;81.10;93782.25;5111983;28;19919;-82
2021/05/10 02:41:48;;;;;;;;;;;;;;;6.13;80.83;93783.06;5112195;28;19923;-82
2021/05/10 02:44:14;;;;;;;;;;;;;;;6.13;80.90;93781.31;5111777;28;19927;-81
2021/05/10 02:46:41;;;;;;;;;;;;;;;6.10;80.43;93784.19;5111879;28;19927;-81
2021/05/10 02:49:07;;;;;;;;;;;;;;;5.97;81.64;93787.25;5111826;28;20312;-82
2021/05/10 02:51:34;;;;;;;;;;;;;;;5.86;82.04;93790.97;5111733;28;19973;-82
2021/05/10 02:54:00;;;;;;;;;;;;;;;5.82;82.61;93784.59;5111962;28;19927;-80
2021/05/10 02:56:26;;;;;;;;;;;;;;;5.85;83.26;93780.94;5111883;28;19920;-80
2021/05/10 02:58:52;;;;;;;;;;;;;;;5.86;84.19;93787.63;5111676;28;20444;-80
2021/05/10 03:01:18;;;;;;;;;;;;;;;5.89;83.70;93782.97;5111634;28;19920;-80
2021/05/10 03:03:44;;;;;;;;;;;;;;;5.85;83.04;93793.69;5111800;28;20386;-80
2021/05/10 03:06:11;;;;;;;;;;;;;;;5.85;83.54;93789.38;5111708;28;19920;-80
2021/05/10 03:08:37;;;;;;;;;;;;;;;5.84;83.15;93782.69;5111701;28;19931;-81
2021/05/10 03:11:03;;;;;;;;;;;;;;;5.77;84.12;93781.75;5111696;28;19949;-82
2021/05/10 03:13:29;;;;;;;;;;;;;;;5.80;83.66;93795.94;5111176;28;19920;-82
2021/05/10 03:15:57;;;;;;;;;;;;;;;5.82;83.42;93794.00;5111579;28;19919;-82
2021/05/10 03:18:23;;;;;;;;;;;;;;;5.85;83.00;93786.84;5111396;28;19927;-82
2021/05/10 03:20:49;;;;;;;;;;;;;;;5.89;83.17;93789.84;5111473;28;19930;-81
2021/05/10 03:23:16;;;;;;;;;;;;;;;5.85;82.72;93786.84;5111117;28;19919;-82
2021/05/10 03:25:42;;;;;;;;;;;;;;;5.88;82.53;93786.50;5111041;28;19930;-82
2021/05/10 03:28:08;;;;;;;;;;;;;;;5.89;82.55;93784.75;5111135;28;19919;-82
2021/05/10 03:30:34;;;;;;;;;;;;;;;5.88;82.01;93783.94;5111315;28;19927;-81
2021/05/10 03:33:00;;;;;;;;;;;;;;;5.86;81.92;93790.97;5111261;28;20324;-82
2021/05/10 03:35:26;;;;;;;;;;;;;;;5.86;82.18;93787.63;5110735;28;20382;-81
2021/05/10 03:37:52;;;;;;;;;;;;;;;5.84;83.12;93792.88;5110105;28;19919;-81
2021/05/10 03:40:20;;;;;;;;;;;;;;;5.83;82.89;93788.75;5110758;28;19919;-81
2021/05/10 03:42:46;;;;;;;;;;;;;;;5.87;82.84;93791.75;5110572;28;19927;-81
2021/05/10 03:45:13;;;;;;;;;;;;;;;5.83;83.41;93793.84;5111041;28;19927;-81
2021/05/10 03:47:40;;;;;;;;;;;;;;;5.85;83.49;93797.03;5110895;28;19920;-81
2021/05/10 03:50:10;;;;;;;;;;;;;;;5.89;83.25;93798.28;5110412;28;20504;-81
2021/05/10 03:52:36;;;;;;;;;;;;;;;6.02;83.39;93802.06;5110857;28;19919;-81
2021/05/10 03:55:02;;;;;;;;;;;;;;;6.06;83.71;93795.69;5110619;28;19930;-81
2021/05/10 03:57:29;;;;;;;;;;;;;;;6.15;83.82;93798.97;5110624;28;19964;-81
2021/05/10 03:59:55;;;;;;;;;;;;;;;6.28;82.74;93799.25;5110481;28;19928;-80
2021/05/10 04:02:22;;;;;;;;;;;;;;;6.38;82.74;93810.97;5110683;28;19923;-81
2021/05/10 04:04:52;;;;;;;;;;;;;;;6.45;82.59;93806.00;5110047;28;19927;-80
2021/05/10 04:07:29;;;;;;;;;;;;;;;6.53;83.12;93808.53;5110651;28;20002;-80
2021/05/10 04:10:22;;;;;;;;;;;;;;;6.55;83.01;93814.22;5110228;28;19971;-80
2021/05/10 04:15:33;;;;;;;;;;;;;;;6.75;81.43;93829.91;5110206;28;20302;-81
2021/05/10 04:17:59;;;;;;;;;;;;;;;6.80;81.40;93825.06;5110216;28;19924;-81
2021/05/10 04:20:25;;;;;;;;;;;;;;;6.89;81.26;93828.34;5109979;28;19926;-81
2021/05/10 04:22:51;;;;;;;;;;;;;;;6.91;81.15;93831.53;5110467;28;19919;-81
2021/05/10 04:25:17;;;;;;;;;;;;;;;6.94;80.78;93827.84;5110178;28;20291;-81
2021/05/10 04:27:45;;;;;;;;;;;;;;;7.06;80.28;93830.78;5101722;28;19919;-80
2021/05/10 04:30:13;;;;;;;;;;;;;;;7.11;80.49;93830.25;5110342;28;19919;-81
2021/05/10 04:32:39;;;;;;;;;;;;;;;7.22;80.56;93834.97;5110026;28;19919;-80
2021/05/10 04:35:06;;;;;;;;;;;;;;;7.39;80.39;93837.38;5109840;28;19934;-81
2021/05/10 04:37:32;;;;;;;;;;;;;;;7.55;79.79;93841.56;5110308;28;19923;-82
2021/05/10 04:39:58;;;;;;;;;;;;;;;7.72;79.66;93839.59;5109916;28;19920;-82
2021/05/10 04:42:24;;;;;;;;;;;;;;;7.82;79.13;93845.25;5110251;28;19920;-82
2021/05/10 04:44:50;;;;;;;;;;;;;;;7.96;78.29;93836.00;5109955;28;20430;-82
2021/05/10 04:47:17;;;;;;;;;;;;;;;8.10;77.22;93836.16;5109994;28;20375;-82
2021/05/10 04:49:43;;;;;;;;;;;;;;;8.14;78.19;93837.38;5112526;28;19920;-82
2021/05/10 04:52:09;;;;;;;;;;;;;;;8.26;77.43;93832.59;5114682;28;20306;-83
2021/05/10 04:54:35;;;;;;;;;;;;;;;8.37;77.42;93839.81;5114365;28;19942;-80
2021/05/10 04:57:01;;;;;;;;;;;;;;;8.49;77.67;93834.22;5114260;28;19919;-81
2021/05/10 04:59:27;;;;;;;;;;;;;;;8.60;77.65;93838.91;5113914;28;19923;-81
2021/05/10 05:01:53;;;;;;;;;;;;;;;8.66;77.36;93840.75;5114057;28;19961;-82
2021/05/10 05:04:20;;;;;;;;;;;;;;;8.78;77.10;93840.25;5114013;28;19968;-82
2021/05/10 05:06:46;;;;;;;;;;;;;;;8.79;77.37;93841.84;5113823;28;19923;-82
2021/05/10 05:09:12;;;;;;;;;;;;;;;8.88;77.84;93845.09;5114045;28;19927;-82
2021/05/10 05:11:38;;;;;;;;;;;;;;;8.98;77.21;93840.44;5113900;28;19920;-81
2021/05/10 05:14:04;;;;;;;;;;;;;;;9.15;75.95;93835.06;5113853;28;19931;-81
2021/05/10 05:16:31;;;;;;;;;;;;;;;9.43;73.71;93826.59;5113496;28;20392;-81
2021/05/10 05:18:57;;;;;;;;;;;;;;;9.59;73.31;93833.22;5113584;28;19926;-82
2021/05/10 05:21:24;;;;;;;;;;;;;;;9.83;73.33;93828.59;5113541;28;19931;-82
2021/05/10 05:23:50;;;;;;;;;;;;;;;9.89;73.56;93831.22;5113751;28;19920;-82
2021/05/10 05:26:16;;;;;;;;;;;;;;;10.08;70.94;93828.94;5113369;28;20034;-82
2021/05/10 05:28:42;;;;;;;;;;;;;;;10.37;69.46;93823.72;5113758;28;19920;-81
2021/05/10 05:31:08;;;;;;;;;;;;;;;10.29;69.70;93829.81;5113104;28;19943;-82
2021/05/10 05:33:34;;;;;;;;;;;;;;;10.39;69.62;93832.00;5113614;28;19919;-81
2021/05/10 05:36:00;;;;;;;;;;;;;;;10.62;67.89;93836.84;5113448;28;19923;-82
2021/05/10 05:38:33;;;;;;;;;;;;;;;10.86;69.04;93827.00;5113032;28;19920;-83
2021/05/10 05:40:59;;;;;;;;;;;;;;;10.96;67.53;93834.34;5113378;28;19935;-82
2021/05/10 05:43:25;;;;;;;;;;;;;;;11.08;67.56;93835.31;5113000;28;19930;-83
2021/05/10 05:45:51;;;;;;;;;;;;;;;11.16;66.80;93833.56;5113305;28;19919;-83
2021/05/10 05:48:17;;;;;;;;;;;;;;;11.26;66.68;93825.44;5112872;28;19926;-83
2021/05/10 05:50:43;;;;;;;;;;;;;;;11.60;65.70;93833.94;5113225;28;20106;-83
2021/05/10 05:53:10;;;;;;;;;;;;;;;11.98;64.36;93835.03;5113339;28;19919;-84
2021/05/10 05:55:37;;;;;;;;;;;;;;;12.23;63.76;93834.41;5113087;28;19920;-85
2021/05/10 05:58:04;;;;;;;;;;;;;;;12.60;63.21;93826.13;5112853;28;19973;-82
2021/05/10 06:00:30;;;;;;;;;;;;;;;12.65;61.36;93827.06;5112514;28;19927;-81
2021/05/10 06:02:56;;;;;;;;;;;;;;;13.07;61.51;93823.25;5112945;28;19920;-81
2021/05/10 06:05:22;;;;;;;;;;;;;;;13.14;59.78;93820.63;5112626;28;19919;-80
2021/05/10 06:07:48;;;;;;;;;;;;;;;13.57;59.46;93832.00;5112455;28;19924;-80
2021/05/10 06:10:17;;;;;;;;;;;;;;;14.02;57.91;93818.03;5112517;28;19926;-80
2021/05/10 06:12:46;;;;;;;;;;;;;;;14.51;56.24;93812.91;5112622;28;19920;-79
2021/05/10 06:15:13;;;;;;;;;;;;;;;14.68;53.98;93812.28;5112726;28;19919;-79
2021/05/10 06:17:40;;;;;;;;;;;;;;;15.01;53.38;93811.06;5112826;28;19919;-79
2021/05/10 06:20:07;;;;;;;;;;;;;;;15.36;51.91;93812.91;5112366;28;19924;-80
2021/05/10 06:22:33;;;;;;;;;;;;;;;15.77;51.58;93807.03;5108187;28;19923;-78
2021/05/10 06:24:59;;;;;;;;;;;;;;;16.08;50.83;93799.13;5110547;28;19931;-81
2021/05/10 06:27:25;;;;;;;;;;;;;;;16.42;50.54;93796.66;5111884;28;19924;-80
2021/05/10 06:29:52;;;;;;;;;;;;;;;16.83;49.58;93792.22;5112629;28;19919;-81
2021/05/10 06:32:18;;;;;;;;;;;;;;;17.19;48.69;93789.44;5112206;28;20449;-81
2021/05/10 06:34:44;;;;;;;;;;;;;;;17.56;47.99;93788.13;5112382;28;20088;-82
2021/05/10 06:37:10;;;;;;;;;;;;;;;17.75;47.37;93788.66;5112367;28;19920;-81
2021/05/10 06:39:36;;;;;;;;;;;;;;;17.49;46.90;93785.69;5112073;28;19927;-81
2021/05/10 06:42:02;;;;;;;;;;;;;;;17.78;46.99;93787.38;5112456;28;19931;-81
2021/05/10 06:44:28;;;;;;;;;;;;;;;18.11;47.42;93774.53;5111796;28;19920;-81
2021/05/10 06:46:55;;;;;;;;;;;;;;;18.47;45.92;93774.16;5111895;28;19920;-80
2021/05/10 06:49:21;;;;;;;;;;;;;;;18.77;45.79;93768.44;5111527;28;19973;-80
2021/05/10 06:51:47;;;;;;;;;;;;;;;18.95;45.37;93767.31;5111966;28;19920;-81
2021/05/10 06:54:13;;;;;;;;;;;;;;;19.26;45.13;93766.78;5111854;28;19931;-82
2021/05/10 06:56:39;;;;;;;;;;;;;;;19.51;44.51;93760.16;5111622;28;19924;-81
2021/05/10 06:59:05;;;;;;;;;;;;;;;19.80;43.93;93765.00;5111464;28;19969;-81
2021/05/10 07:01:31;;;;;;;;;;;;;;;20.08;43.60;93762.28;5111663;28;19919;-80
2021/05/10 07:03:58;;;;;;;;;;;;;;;20.23;43.84;93754.50;5111702;28;19927;-81
2021/05/10 07:06:24;;;;;;;;;;;;;;;20.34;43.67;93757.94;5111915;28;20357;-81
2021/05/10 07:08:50;;;;;;;;;;;;;;;20.56;43.06;93759.53;5111528;28;19924;-81
2021/05/10 07:11:16;;;;;;;;;;;;;;;20.44;43.27;93757.16;5111758;28;19946;-81
2021/05/10 07:13:42;;;;;;;;;;;;;;;20.72;43.44;93754.31;5110749;28;20302;-81
2021/05/10 07:16:08;;;;;;;;;;;;;;;20.69;43.39;93748.59;5111374;28;19920;-80
2021/05/10 07:18:34;;;;;;;;;;;;;;;21.00;42.39;93754.88;5111296;28;19923;-81
2021/05/10 07:21:01;;;;;;;;;;;;;;;21.18;41.66;93759.59;5111341;28;19920;-82
2021/05/10 07:23:27;;;;;;;;;;;;;;;21.45;41.93;93757.72;5111300;28;20026;-81
2021/05/10 07:25:54;;;;;;;;;;;;;;;21.65;41.65;93756.91;5111210;28;19923;-81
2021/05/10 07:28:20;;;;;;;;;;;;;;;21.69;40.10;93755.31;5111609;28;19919;-82
2021/05/10 07:30:46;;;;;;;;;;;;;;;21.82;41.03;93754.00;5106903;28;19947;-81
2021/05/10 07:33:12;;;;;;;;;;;;;;;21.97;39.88;93757.59;5109395;28;19977;-81
2021/05/10 07:35:39;;;;;;;;;;;;;;;21.80;40.24;93758.72;5111133;28;20274;-82
2021/05/10 07:38:06;;;;;;;;;;;;;;;22.06;39.67;93753.41;5110999;28;20426;-80
2021/05/10 07:40:32;;;;;;;;;;;;;;;21.85;40.84;93757.94;5110998;28;20455;-81
2021/05/10 07:42:58;;;;;;;;;;;;;;;22.15;39.64;93756.22;5110914;28;19923;-81
2021/05/10 07:45:25;;;;;;;;;;;;;;;22.29;39.72;93753.81;5110901;28;19930;-81
2021/05/10 07:47:53;;;;;;;;;;;;;;;22.42;39.57;93753.22;5110964;28;19920;-81
2021/05/10 07:50:19;;;;;;;;;;;;;;;22.46;39.64;93752.69;5110892;28;19981;-80
2021/05/10 07:52:45;;;;;;;;;;;;;;;22.60;39.21;93752.88;5110366;28;20420;-81
2021/05/10 07:55:12;;;;;;;;;;;;;;;22.72;39.25;93749.94;5110722;28;19924;-82
2021/05/10 07:57:38;;;;;;;;;;;;;;;22.58;38.30;93745.28;5110865;28;19923;-81
2021/05/10 08:00:07;;;;;;;;;;;;;;;22.48;39.08;93742.72;5110315;28;19957;-81
2021/05/10 08:02:35;;;;;;;;;;;;;;;22.41;39.06;93743.03;5110674;28;20360;-83
2021/05/10 08:05:02;;;;;;;;;;;;;;;22.34;41.01;93732.84;5110657;28;19920;-81
2021/05/10 08:07:28;;;;;;;;;;;;;;;22.34;40.46;93737.28;5110207;28;19924;-82
2021/05/10 08:09:54;;;;;;;;;;;;;;;22.09;39.28;93734.56;5110590;28;19919;-81
2021/05/10 08:12:21;;;;;;;;;;;;;;;21.81;40.24;93731.53;5110568;28;20333;-82
2021/05/10 08:14:47;;;;;;;;;;;;;;;21.16;42.63;93727.72;5110383;28;19919;-81
2021/05/10 08:17:13;;;;;;;;;;;;;;;21.20;42.71;93722.78;5110459;28;19930;-81
2021/05/10 08:19:39;;;;;;;;;;;;;;;21.41;41.78;93718.28;5110181;28;20382;-81
2021/05/10 08:22:05;;;;;;;;;;;;;;;21.31;42.26;93713.88;5110367;28;19923;-81
2021/05/10 08:24:32;;;;;;;;;;;;;;;20.87;42.76;93714.44;5110159;28;19927;-82
2021/05/10 08:26:58;;;;;;;;;;;;;;;20.94;42.39;93715.75;5110269;28;19920;-83
2021/05/10 08:29:25;;;;;;;;;;;;;;;21.12;42.72;93712.84;5110202;28;19923;-82
2021/05/10 08:31:51;;;;;;;;;;;;;;;20.86;41.73;93711.03;5110115;28;19930;-82
2021/05/10 08:34:18;;;;;;;;;;;;;;;21.51;42.94;93704.41;5110238;28;19979;-82
2021/05/10 08:36:45;;;;;;;;;;;;;;;21.64;41.31;93703.06;5109792;28;19980;-84
2021/05/10 08:39:12;;;;;;;;;;;;;;;21.97;40.37;93698.25;5110315;28;19927;-83
2021/05/10 08:41:38;;;;;;;;;;;;;;;22.27;40.59;93691.28;5109699;28;19924;-82
2021/05/10 08:44:05;;;;;;;;;;;;;;;22.59;40.02;93684.03;5110172;28;19923;-82
2021/05/10 08:46:32;;;;;;;;;;;;;;;22.80;39.19;93691.72;5110242;28;19920;-83
2021/05/10 08:48:58;;;;;;;;;;;;;;;22.54;38.94;93684.09;5109946;28;19927;-83
2021/05/10 08:51:25;;;;;;;;;;;;;;;22.28;40.91;93692.84;5110015;28;19924;-82
2021/05/10 08:53:51;;;;;;;;;;;;;;;21.91;40.58;93685.44;5110120;28;19923;-81
2021/05/10 08:56:17;;;;;;;;;;;;;;;21.43;41.22;93684.06;5110057;28;19920;-83
2021/05/10 08:58:44;;;;;;;;;;;;;;;21.44;41.16;93683.00;5092544;28;19924;-84
2021/05/10 09:01:11;;;;;;;;;;;;;;;21.25;41.73;93680.97;5089733;28;19927;-83
2021/05/10 09:03:41;;;;;;;;;;;;;;;21.62;41.00;93676.41;5089678;28;19928;-82
2021/05/10 09:06:11;;;;;;;;;;;;;;;22.25;40.77;93682.91;5089439;28;19971;-83
2021/05/10 09:08:40;;;;;;;;;;;;;;;22.58;39.06;93672.00;5089693;28;20408;-84
2021/05/10 09:11:07;;;;;;;;;;;;;;;22.89;39.17;93674.38;5095146;28;19919;-83
2021/05/10 09:13:34;;;;;;;;;;;;;;;22.85;38.30;93675.22;5092622;28;19924;-83
2021/05/10 09:16:01;;;;;;;;;;;;;;;23.22;38.74;93669.34;5092328;28;19920;-82
2021/05/10 09:18:27;;;;;;;;;;;;;;;23.52;37.08;93669.34;5095332;28;19920;-84
2021/05/10 09:20:54;;;;;;;;;;;;;;;23.05;37.88;93661.13;5092257;28;19927;-83
2021/05/10 09:23:20;;;;;;;;;;;;;;;23.16;37.32;93659.97;5093038;28;19947;-83
2021/05/10 09:25:46;;;;;;;;;;;;;;;23.14;38.31;93643.75;5093342;28;20010;-83
2021/05/10 09:28:13;;;;;;;;;;;;;;;23.86;37.50;93644.00;5094349;28;19943;-83
2021/05/10 09:30:40;;;;;;;;;;;;;;;23.91;37.12;93643.16;5092501;28;19920;-84
2021/05/10 09:33:06;;;;;;;;;;;;;;;23.49;36.55;93648.91;5092225;28;19946;-83
2021/05/10 09:35:32;;;;;;;;;;;;;;;23.20;35.90;93640.00;5092972;28;19920;-83
2021/05/10 09:38:01;;;;;;;;;;;;;;;23.69;37.28;93640.00;5098501;28;19927;-82
2021/05/10 09:40:29;;;;;;;;;;;;;;;22.82;37.26;93645.88;5104428;28;19920;-83
2021/05/10 09:42:56;;;;;;;;;;;;;;;22.74;38.71;93641.25;5113368;28;19920;-83
2021/05/10 09:45:35;;;;;;;;;;;;;;;23.41;37.25;93633.81;5113454;28;19920;-83
2021/05/10 09:48:23;;;;;;;;;;;;;;;23.84;36.24;93640.88;5112949;28;19968;-82
2021/05/10 09:50:50;;;;;;;;;;;;;;;23.57;35.48;93648.31;5106594;28;19919;-83
2021/05/10 09:53:20;;;;;;;;;;;;;;;23.12;36.40;93635.38;5112816;28;19965;-82
2021/05/10 09:55:49;;;;;;;;;;;;;;;22.68;37.09;93637.88;5112926;28;19973;-83
2021/05/10 09:58:16;;;;;;;;;;;;;;;23.02;37.54;93631.03;5112706;28;19923;-82
2021/05/10 10:00:43;;;;;;;;;;;;;;;23.16;35.49;93631.16;5113162;28;19920;-82
2021/05/10 10:03:22;;;;;;;;;;;;;;;22.74;36.31;93628.16;5112877;28;19947;-82
2021/05/10 10:05:49;;;;;;;;;;;;;;;23.25;35.81;93630.53;5107772;28;20345;-82
2021/05/10 10:08:16;;;;;;;;;;;;;;;23.69;33.77;93628.75;5109063;28;19920;-82
2021/05/10 10:10:43;;;;;;;;;;;;;;;23.96;32.58;93620.25;5112566;28;19923;-83
2021/05/10 10:13:09;;;;;;;;;;;;;;;24.32;32.87;93624.25;5112594;28;19926;-83
2021/05/10 10:15:35;;;;;;;;;;;;;;;24.57;33.34;93613.63;5112661;28;19949;-82
2021/05/10 10:18:03;;;;;;;;;;;;;;;25.05;31.81;93608.06;5112797;28;19923;-83
2021/05/10 10:20:30;;;;;;;;;;;;;;;25.05;31.04;93615.97;5112641;28;19932;-83
2021/05/10 10:22:57;;;;;;;;;;;;;;;25.15;32.06;93609.75;5112396;28;20421;-82
2021/05/10 10:25:23;;;;;;;;;;;;;;;25.23;30.25;93608.28;5112339;28;20409;-83
2021/05/10 10:27:50;;;;;;;;;;;;;;;25.23;32.54;93605.66;5112612;28;20365;-82
2021/05/10 10:30:17;;;;;;;;;;;;;;;24.68;31.85;93607.91;5112642;28;19919;-83
2021/05/10 10:32:44;;;;;;;;;;;;;;;24.89;31.31;93598.91;5112420;28;19919;-83
2021/05/10 10:35:15;;;;;;;;;;;;;;;24.54;31.76;93607.09;5112192;28;19927;-82
2021/05/10 10:37:41;;;;;;;;;;;;;;;24.93;31.95;93602.53;5112122;28;19923;-82
2021/05/10 10:40:15;;;;;;;;;;;;;;;25.18;32.13;93603.13;5111930;28;20379;-82
2021/05/10 10:42:41;;;;;;;;;;;;;;;24.53;31.42;93603.69;5112320;28;19926;-83
2021/05/10 10:45:11;;;;;;;;;;;;;;;23.56;33.17;93607.38;5112090;28;20040;-83
2021/05/10 10:47:43;;;;;;;;;;;;;;;23.67;32.54;93605.44;5111508;28;19920;-83
2021/05/10 10:50:09;;;;;;;;;;;;;;;24.28;32.13;93592.53;5111639;28;19919;-82
2021/05/10 10:52:45;;;;;;;;;;;;;;;24.76;31.84;93590.69;5111265;28;19927;-83
2021/05/10 10:55:16;;;;;;;;;;;;;;;24.90;33.32;93589.97;5111716;28;20485;-83
2021/05/10 10:57:43;;;;;;;;;;;;;;;24.87;31.64;93580.03;5102134;28;19969;-84
2021/05/10 11:00:13;;;;;;;;;;;;;;;25.21;30.69;93576.25;5110880;28;19923;-83
2021/05/10 11:02:40;;;;;;;;;;;;;;;24.89;30.25;93577.88;5111471;28;19926;-84
2021/05/10 11:05:08;;;;;;;;;;;;;;;25.03;32.28;93575.28;5111720;28;19920;-83
2021/05/10 11:07:49;;;;;;;;;;;;;;;25.17;31.06;93576.06;5111521;28;19923;-82
2021/05/10 11:10:34;;;;;;;;;;;;;;;25.51;29.83;93565.41;5111706;28;19920;-83
2021/05/10 11:13:00;;;;;;;;;;;;;;;25.75;29.91;93559.94;5111497;28;19924;-83
2021/05/10 11:15:45;;;;;;;;;;;;;;;25.38;29.31;93556.47;5111152;28;20432;-84
2021/05/10 11:18:12;;;;;;;;;;;;;;;25.63;30.04;93554.41;5111313;28;20388;-83
2021/05/10 11:20:38;;;;;;;;;;;;;;;25.58;29.08;93553.44;5111635;28;19931;-83
2021/05/10 11:23:31;;;;;;;;;;;;;;;25.75;28.40;93546.78;5111112;28;19924;-83
2021/05/10 11:25:59;;;;;;;;;;;;;;;25.17;29.40;93546.34;5073028;28;19924;-84
2021/05/10 11:28:44;;;;;;;;;;;;;;;25.55;29.58;93545.38;5111268;28;19925;-85
2021/05/10 11:31:11;;;;;;;;;;;;;;;25.71;27.14;93545.81;5111014;28;20011;-85
2021/05/10 11:33:56;;;;;;;;;;;;;;;25.28;29.77;93536.44;5110928;28;19927;-85
2021/05/10 11:36:23;;;;;;;;;;;;;;;25.18;28.27;93540.03;5110979;28;20385;-84
2021/05/10 11:38:52;;;;;;;;;;;;;;;24.79;28.24;93542.06;5110996;28;20298;-85
2021/05/10 11:41:18;;;;;;;;;;;;;;;25.37;28.08;93531.25;5111069;28;19942;-84
2021/05/10 11:43:44;;;;;;;;;;;;;;;25.27;28.64;93527.75;5111085;28;19923;-85
2021/05/10 11:46:11;;;;;;;;;;;;;;;25.29;29.32;93515.09;5111359;28;20302;-85
2021/05/10 11:48:40;;;;;;;;;;;;;;;25.40;29.31;93520.16;5111059;28;19919;-84
2021/05/10 11:51:18;;;;;;;;;;;;;;;25.89;29.17;93515.16;5110628;28;19945;-84
2021/05/10 11:53:45;;;;;;;;;;;;;;;25.48;29.28;93512.34;5110651;28;19981;-84
2021/05/10 11:56:11;;;;;;;;;;;;;;;25.94;28.38;93511.63;5110383;28;19919;-84
2021/05/10 11:58:47;;;;;;;;;;;;;;;26.30;28.69;93504.75;5110376;28;19958;-84
2021/05/10 12:01:13;;;;;;;;;;;;;;;26.66;27.13;93501.97;5110394;28;19923;-85
2021/05/10 12:03:39;;;;;;;;;;;;;;;26.80;27.68;93493.19;5110644;28;19961;-84
2021/05/10 12:06:20;;;;;;;;;;;;;;;25.80;26.78;93498.53;5110326;28;19923;-84
2021/05/10 12:08:47;;;;;;;;;;;;;;;26.34;26.98;93490.66;5092982;28;19972;-84
2021/05/10 12:11:20;;;;;;;;;;;;;;;26.54;25.98;93494.66;5110289;28;19924;-84
2021/05/10 12:13:46;;;;;;;;;;;;;;;26.65;27.32;93481.19;5110354;28;20294;-83
2021/05/10 12:16:12;;;;;;;;;;;;;;;25.99;26.91;93491.25;5110163;28;19926;-84
2021/05/10 12:18:40;;;;;;;;;;;;;;;25.92;26.71;93475.06;5110582;28;20340;-85
2021/05/10 12:21:14;;;;;;;;;;;;;;;25.81;27.33;93481.66;5110405;28;19946;-84
2021/05/10 12:23:40;;;;;;;;;;;;;;;25.93;27.67;93475.84;5109963;28;20310;-83
2021/05/10 12:26:11;;;;;;;;;;;;;;;26.39;27.44;93481.88;5110214;28;19919;-84
2021/05/10 12:28:37;;;;;;;;;;;;;;;26.08;27.41;93477.34;5107630;28;19931;-84
2021/05/10 12:31:03;;;;;;;;;;;;;;;25.91;27.32;93468.25;5110294;28;19920;-84
2021/05/10 12:33:30;;;;;;;;;;;;;;;25.55;28.40;93463.84;5101568;28;19965;-83
2021/05/10 12:35:58;;;;;;;;;;;;;;;26.19;29.07;93465.47;5110225;28;19923;-83
2021/05/10 12:38:25;;;;;;;;;;;;;;;25.97;27.30;93461.78;5109956;28;20038;-84
2021/05/10 12:40:52;;;;;;;;;;;;;;;25.86;27.81;93457.84;5110078;28;19923;-84
2021/05/10 12:43:19;;;;;;;;;;;;;;;25.57;28.32;93457.22;5110023;28;20441;-84
2021/05/10 12:45:46;;;;;;;;;;;;;;;25.52;28.34;93456.50;5109919;28;19968;-85
2021/05/10 12:48:19;;;;;;;;;;;;;;;25.74;26.92;93448.66;5110163;28;19934;-84
2021/05/10 12:50:46;;;;;;;;;;;;;;;26.02;26.91;93442.47;5109961;28;19966;-83
2021/05/10 12:53:12;;;;;;;;;;;;;;;25.56;27.76;93442.50;5109808;28;19927;-84